createdAt,value
2018-04-27T00:08:34.996Z,6.86
2018-04-27T00:18:34.974Z,6.63
2018-04-27T00:28:36.075Z,6.54
2018-04-27T00:38:34.983Z,6.5
2018-04-27T00:48:35.000Z,6.5
2018-04-27T00:58:35.043Z,6.5
2018-04-27T01:08:35.026Z,6.38
2018-04-27T01:18:35.020Z,6.38
2018-04-27T01:28:35.040Z,6.44
2018-04-27T01:38:35.079Z,6.41
2018-04-27T01:48:35.135Z,6.4
2018-04-27T01:58:35.076Z,6.19
2018-04-27T02:08:35.109Z,6.13
2018-04-27T02:18:35.094Z,6.07
2018-04-27T02:28:35.069Z,6.18
2018-04-27T02:38:35.750Z,6.06
2018-04-27T02:48:35.097Z,6.14
2018-04-27T02:58:35.097Z,6.1
2018-04-27T03:08:35.135Z,6.11
2018-04-27T03:18:35.110Z,6.13
2018-04-27T03:28:35.111Z,5.98
2018-04-27T03:38:35.111Z,6.07
2018-04-27T03:48:35.160Z,6.19
2018-04-27T03:58:36.280Z,6.13
2018-04-27T04:08:35.145Z,6.04
2018-04-27T04:18:35.191Z,6.06
2018-04-27T04:28:35.184Z,6.07
2018-04-27T04:38:35.177Z,5.88
2018-04-27T04:48:35.176Z,5.86
2018-04-27T04:58:35.211Z,5.98
2018-04-27T05:08:35.240Z,6.03
2018-04-27T05:18:36.266Z,6.41
2018-04-27T05:28:35.199Z,6.58
2018-04-27T05:38:35.254Z,6.94
2018-04-27T05:48:35.229Z,7.47
2018-04-27T05:58:35.248Z,8.11
2018-04-27T06:08:35.301Z,8.57
2018-04-27T06:18:35.292Z,9.23
2018-04-27T06:28:35.279Z,9.96
2018-04-27T06:38:35.797Z,10.96
2018-04-27T06:48:35.410Z,11.64
2018-04-27T06:59:05.170Z,11.86
2018-04-27T07:09:09.950Z,12.45
2018-04-27T07:18:35.306Z,13.37
2018-04-27T07:28:35.343Z,17.14
2018-04-27T07:38:35.511Z,21.14
2018-04-27T07:48:35.448Z,22.97
2018-04-27T07:58:35.494Z,24
2018-04-27T08:08:35.575Z,23.64
2018-04-27T08:18:35.449Z,22.96
2018-04-27T08:28:35.362Z,22.39
2018-04-27T08:38:35.404Z,20.91
2018-04-27T08:48:35.360Z,19.42
2018-04-27T08:58:35.437Z,18.87
2018-04-27T09:08:35.341Z,18.59
2018-04-27T09:18:35.385Z,18.21
2018-04-27T09:28:35.349Z,18.62
2018-04-27T09:38:35.503Z,18.64
2018-04-27T09:48:35.471Z,18.52
2018-04-27T09:58:35.462Z,19.17
2018-04-27T10:08:35.371Z,18.47
2018-04-27T10:18:35.434Z,18.24
2018-04-27T10:28:35.334Z,18
2018-04-27T10:38:35.469Z,18.74
2018-04-27T10:48:35.414Z,19.1
2018-04-27T10:58:36.159Z,19.08
2018-04-27T11:08:35.387Z,19.1
2018-04-27T11:38:36.292Z,20.16
2018-04-27T11:48:39.115Z,19.86
2018-04-27T11:58:35.390Z,19.9
2018-04-27T12:18:35.428Z,19.36
2018-04-27T12:28:35.411Z,19.25
2018-04-27T12:38:35.356Z,19.43
2018-04-27T12:48:35.393Z,19.2
2018-04-27T13:08:41.466Z,19.8
2018-04-27T13:18:35.433Z,19.66
2018-04-27T13:28:43.964Z,19.5
2018-04-27T13:38:35.416Z,19.98
2018-04-27T13:48:35.430Z,20.08
2018-04-27T14:28:35.498Z,19.5
2018-04-27T14:38:40.105Z,19.31
2018-04-27T14:58:35.447Z,19.57
2018-04-27T15:08:35.410Z,19.58
2018-04-27T15:18:35.501Z,19.5
2018-04-27T15:28:35.393Z,19.35
2018-04-27T15:38:47.728Z,18.92
2018-04-27T15:48:35.461Z,18.42
2018-04-27T15:58:35.371Z,17.94
2018-04-27T16:08:35.440Z,17.23
2018-04-27T16:18:35.447Z,16.92
2018-04-27T16:38:47.570Z,17.53
2018-04-27T16:48:35.419Z,17.43
2018-04-27T16:58:35.418Z,17.44
2018-04-27T17:08:35.443Z,17.73
2018-04-27T17:18:35.412Z,17.23
2018-04-27T17:28:36.583Z,16.44
2018-04-27T17:38:35.455Z,16.25
2018-04-27T17:48:35.406Z,15.92
2018-04-27T17:58:35.455Z,15.46
2018-04-27T18:28:36.294Z,14.25
2018-04-27T18:58:35.451Z,13
2018-04-27T20:08:35.483Z,12.13
2018-04-27T20:18:35.534Z,12.21
2018-04-27T20:38:42.722Z,12.13
2018-04-27T21:08:35.402Z,11.72
2018-04-27T21:18:35.586Z,11.36
2018-04-27T21:28:35.449Z,11.29
2018-04-27T22:08:40.833Z,10.22
2018-04-27T22:18:35.363Z,10.04
2018-04-27T22:28:35.468Z,9.83
2018-04-27T22:38:35.480Z,9.78
2018-04-27T22:48:35.596Z,9.85
2018-04-27T22:58:36.001Z,9.88
2018-04-27T23:08:35.593Z,9.85
2018-04-27T23:18:35.569Z,9.83
2018-04-27T23:28:35.388Z,9.78
2018-04-27T23:38:35.376Z,9.78
2018-04-27T23:48:35.397Z,9.76
2018-04-27T23:58:35.452Z,9.71
